Nettleham, United Kingdom
Current Conditions -  °F | °C
As of 11:50 AM on Thursday 30 Oct 2014 (Local Time) from EGXP Reporting Station
Haze Haze  
Wind Chill: 61°   Ceiling: 1200
Heat Index: 61°   Visibility: 4mi
Dew Point: 59°   Wind: 10mph
Humidity: 94%   Direction: 220°SW
Pressure: 30"   Gusts: NA
Location:  53.27°N, 0.49°W
Report Text: EGXP 301150Z 22009KT 7000 BR BKN012 BKN020 16/15 Q1016 GRN
Loading
Personal Weather Stations






























Interactive Weather Map
Tropical Storm Tracking
New forecast layout! Learn more

10-Day Weather Forecast

Advertisements
Track Severe Weather on mobile